sensor_id;sensor_type;location;lat;lon;timestamp;temperature;humidity
17948;DHT22;9099;47.958;11.366;2022-09-09T00:02:08;16.80;99.90
17948;DHT22;9099;47.958;11.366;2022-09-09T00:04:41;16.70;99.90
17948;DHT22;9099;47.958;11.366;2022-09-09T00:07:13;16.70;99.90
17948;DHT22;9099;47.958;11.366;2022-09-09T00:09:46;16.60;99.90
17948;DHT22;9099;47.958;11.366;2022-09-09T00:12:18;16.70;99.90
17948;DHT22;9099;47.958;11.366;2022-09-09T00:14:51;16.60;99.90
17948;DHT22;9099;47.958;11.366;2022-09-09T00:17:30;16.70;99.90
17948;DHT22;9099;47.958;11.366;2022-09-09T00:20:03;16.70;99.90
17948;DHT22;9099;47.958;11.366;2022-09-09T00:22:32;16.80;99.90
17948;DHT22;9099;47.958;11.366;2022-09-09T00:25:08;16.80;99.90
17948;DHT22;9099;47.958;11.366;2022-09-09T00:27:41;16.90;99.90
17948;DHT22;9099;47.958;11.366;2022-09-09T00:30:15;16.80;99.90
17948;DHT22;9099;47.958;11.366;2022-09-09T00:32:45;16.80;99.90
17948;DHT22;9099;47.958;11.366;2022-09-09T00:35:17;16.70;99.90
17948;DHT22;9099;47.958;11.366;2022-09-09T00:37:46;16.70;99.90
17948;DHT22;9099;47.958;11.366;2022-09-09T00:40:22;16.60;99.90
17948;DHT22;9099;47.958;11.366;2022-09-09T00:43:03;16.50;99.90
17948;DHT22;9099;47.958;11.366;2022-09-09T00:45:59;16.40;99.90
17948;DHT22;9099;47.958;11.366;2022-09-09T00:48:34;16.20;99.90
17948;DHT22;9099;47.958;11.366;2022-09-09T00:51:09;16.20;99.90
17948;DHT22;9099;47.958;11.366;2022-09-09T00:54:00;16.20;99.90
17948;DHT22;9099;47.958;11.366;2022-09-09T00:56:33;16.30;99.90
17948;DHT22;9099;47.958;11.366;2022-09-09T00:59:12;16.30;99.90
17948;DHT22;9099;47.958;11.366;2022-09-09T01:01:43;16.30;99.90
17948;DHT22;9099;47.958;11.366;2022-09-09T01:04:14;16.40;99.90
17948;DHT22;9099;47.958;11.366;2022-09-09T01:06:45;16.50;99.90
17948;DHT22;9099;47.958;11.366;2022-09-09T01:09:21;16.50;99.90
17948;DHT22;9099;47.958;11.366;2022-09-09T01:11:57;16.50;99.90
17948;DHT22;9099;47.958;11.366;2022-09-09T01:14:38;16.50;99.90
17948;DHT22;9099;47.958;11.366;2022-09-09T01:17:12;16.60;99.90
17948;DHT22;9099;47.958;11.366;2022-09-09T01:19:50;16.60;99.90
17948;DHT22;9099;47.958;11.366;2022-09-09T01:22:28;16.50;99.90
17948;DHT22;9099;47.958;11.366;2022-09-09T01:25:15;16.40;99.90
17948;DHT22;9099;47.958;11.366;2022-09-09T01:27:47;16.30;99.90
17948;DHT22;9099;47.958;11.366;2022-09-09T01:30:16;16.30;99.90
17948;DHT22;9099;47.958;11.366;2022-09-09T01:32:48;16.30;99.90
17948;DHT22;9099;47.958;11.366;2022-09-09T01:35:23;16.30;99.90
17948;DHT22;9099;47.958;11.366;2022-09-09T01:37:55;16.40;99.90
17948;DHT22;9099;47.958;11.366;2022-09-09T01:40:22;16.40;99.90
17948;DHT22;9099;47.958;11.366;2022-09-09T01:42:52;16.30;99.90
17948;DHT22;9099;47.958;11.366;2022-09-09T01:45:20;16.30;99.90
17948;DHT22;9099;47.958;11.366;2022-09-09T01:47:48;16.30;99.90
17948;DHT22;9099;47.958;11.366;2022-09-09T01:50:16;16.40;99.90
17948;DHT22;9099;47.958;11.366;2022-09-09T01:52:45;16.40;99.90
17948;DHT22;9099;47.958;11.366;2022-09-09T01:55:13;16.40;99.90
17948;DHT22;9099;47.958;11.366;2022-09-09T01:57:45;16.40;99.90
17948;DHT22;9099;47.958;11.366;2022-09-09T02:00:18;16.40;99.90
17948;DHT22;9099;47.958;11.366;2022-09-09T02:02:51;16.40;99.90
17948;DHT22;9099;47.958;11.366;2022-09-09T02:05:30;16.50;99.90
17948;DHT22;9099;47.958;11.366;2022-09-09T02:08:05;16.40;99.90
17948;DHT22;9099;47.958;11.366;2022-09-09T02:10:37;16.20;99.90
17948;DHT22;9099;47.958;11.366;2022-09-09T02:13:10;16.10;99.90
17948;DHT22;9099;47.958;11.366;2022-09-09T02:15:43;16.10;99.90
17948;DHT22;9099;47.958;11.366;2022-09-09T02:18:15;16.20;99.90
17948;DHT22;9099;47.958;11.366;2022-09-09T02:20:45;16.10;99.90
17948;DHT22;9099;47.958;11.366;2022-09-09T02:23:13;16.10;99.90
17948;DHT22;9099;47.958;11.366;2022-09-09T02:25:41;16.10;99.90
17948;DHT22;9099;47.958;11.366;2022-09-09T02:28:10;16.20;99.90
17948;DHT22;9099;47.958;11.366;2022-09-09T02:30:41;16.20;99.90
17948;DHT22;9099;47.958;11.366;2022-09-09T02:33:11;16.20;99.90
17948;DHT22;9099;47.958;11.366;2022-09-09T02:35:39;16.10;99.90
17948;DHT22;9099;47.958;11.366;2022-09-09T02:38:09;16.10;99.90
17948;DHT22;9099;47.958;11.366;2022-09-09T02:40:37;16.00;99.90
17948;DHT22;9099;47.958;11.366;2022-09-09T02:43:04;16.00;99.90
17948;DHT22;9099;47.958;11.366;2022-09-09T02:45:35;16.00;99.90
17948;DHT22;9099;47.958;11.366;2022-09-09T02:48:11;15.90;99.90
17948;DHT22;9099;47.958;11.366;2022-09-09T02:50:48;15.90;99.90
17948;DHT22;9099;47.958;11.366;2022-09-09T02:53:22;15.90;99.90
17948;DHT22;9099;47.958;11.366;2022-09-09T02:55:53;16.00;99.90
17948;DHT22;9099;47.958;11.366;2022-09-09T02:58:22;16.00;99.90
17948;DHT22;9099;47.958;11.366;2022-09-09T03:00:51;16.00;99.90
17948;DHT22;9099;47.958;11.366;2022-09-09T03:03:19;16.00;99.90
17948;DHT22;9099;47.958;11.366;2022-09-09T03:05:47;16.00;99.90
17948;DHT22;9099;47.958;11.366;2022-09-09T03:08:15;16.10;99.90
17948;DHT22;9099;47.958;11.366;2022-09-09T03:10:42;16.10;99.90
17948;DHT22;9099;47.958;11.366;2022-09-09T03:13:10;16.20;99.90
17948;DHT22;9099;47.958;11.366;2022-09-09T03:15:37;16.10;99.90
17948;DHT22;9099;47.958;11.366;2022-09-09T03:18:04;16.20;99.90
17948;DHT22;9099;47.958;11.366;2022-09-09T03:20:32;16.20;99.90
17948;DHT22;9099;47.958;11.366;2022-09-09T03:23:00;16.10;99.90
17948;DHT22;9099;47.958;11.366;2022-09-09T03:25:28;16.10;99.90
17948;DHT22;9099;47.958;11.366;2022-09-09T03:27:56;16.20;99.90
17948;DHT22;9099;47.958;11.366;2022-09-09T03:30:23;16.10;99.90
17948;DHT22;9099;47.958;11.366;2022-09-09T03:32:50;16.10;99.90
17948;DHT22;9099;47.958;11.366;2022-09-09T03:35:18;16.10;99.90
17948;DHT22;9099;47.958;11.366;2022-09-09T03:37:46;16.20;99.90
17948;DHT22;9099;47.958;11.366;2022-09-09T03:40:14;16.20;99.90
17948;DHT22;9099;47.958;11.366;2022-09-09T03:42:41;16.20;99.90
17948;DHT22;9099;47.958;11.366;2022-09-09T03:45:09;16.20;99.90
17948;DHT22;9099;47.958;11.366;2022-09-09T03:47:36;16.20;99.90
17948;DHT22;9099;47.958;11.366;2022-09-09T03:50:04;16.20;99.90
17948;DHT22;9099;47.958;11.366;2022-09-09T03:52:34;16.20;99.90
17948;DHT22;9099;47.958;11.366;2022-09-09T03:55:03;16.10;99.90
17948;DHT22;9099;47.958;11.366;2022-09-09T03:57:30;16.10;99.90
17948;DHT22;9099;47.958;11.366;2022-09-09T03:59:59;16.10;99.90
17948;DHT22;9099;47.958;11.366;2022-09-09T04:02:26;16.10;99.90
17948;DHT22;9099;47.958;11.366;2022-09-09T04:04:53;16.10;99.90
17948;DHT22;9099;47.958;11.366;2022-09-09T04:07:20;16.10;99.90
17948;DHT22;9099;47.958;11.366;2022-09-09T04:09:47;16.10;99.90
17948;DHT22;9099;47.958;11.366;2022-09-09T04:12:16;16.10;99.90
17948;DHT22;9099;47.958;11.366;2022-09-09T04:14:43;16.10;99.90
17948;DHT22;9099;47.958;11.366;2022-09-09T04:17:10;16.10;99.90
17948;DHT22;9099;47.958;11.366;2022-09-09T04:19:36;16.00;99.90
17948;DHT22;9099;47.958;11.366;2022-09-09T04:22:03;16.00;99.90
17948;DHT22;9099;47.958;11.366;2022-09-09T04:24:30;15.90;99.90
17948;DHT22;9099;47.958;11.366;2022-09-09T04:26:57;15.80;99.90
17948;DHT22;9099;47.958;11.366;2022-09-09T04:29:25;15.90;99.90
17948;DHT22;9099;47.958;11.366;2022-09-09T04:31:52;15.90;99.90
17948;DHT22;9099;47.958;11.366;2022-09-09T04:34:19;15.80;99.90
17948;DHT22;9099;47.958;11.366;2022-09-09T04:36:46;15.80;99.90
17948;DHT22;9099;47.958;11.366;2022-09-09T04:39:17;15.80;99.90
17948;DHT22;9099;47.958;11.366;2022-09-09T04:41:45;15.70;99.90
17948;DHT22;9099;47.958;11.366;2022-09-09T04:44:12;15.70;99.90
17948;DHT22;9099;47.958;11.366;2022-09-09T04:46:40;15.70;99.90
17948;DHT22;9099;47.958;11.366;2022-09-09T04:49:07;15.70;99.90
17948;DHT22;9099;47.958;11.366;2022-09-09T04:51:34;15.60;99.90
17948;DHT22;9099;47.958;11.366;2022-09-09T04:54:01;15.60;99.90
17948;DHT22;9099;47.958;11.366;2022-09-09T04:56:28;15.70;99.90
17948;DHT22;9099;47.958;11.366;2022-09-09T04:58:55;15.70;99.90
17948;DHT22;9099;47.958;11.366;2022-09-09T05:01:22;15.60;99.90
17948;DHT22;9099;47.958;11.366;2022-09-09T05:03:51;15.60;99.90
17948;DHT22;9099;47.958;11.366;2022-09-09T05:06:20;15.60;99.90
17948;DHT22;9099;47.958;11.366;2022-09-09T05:08:47;15.60;99.90
17948;DHT22;9099;47.958;11.366;2022-09-09T05:11:19;15.70;99.90
17948;DHT22;9099;47.958;11.366;2022-09-09T05:13:46;15.70;99.90
17948;DHT22;9099;47.958;11.366;2022-09-09T05:16:14;15.80;99.90
17948;DHT22;9099;47.958;11.366;2022-09-09T05:18:41;15.80;99.90
17948;DHT22;9099;47.958;11.366;2022-09-09T05:21:11;15.70;99.90
17948;DHT22;9099;47.958;11.366;2022-09-09T05:23:38;15.80;99.90
17948;DHT22;9099;47.958;11.366;2022-09-09T05:26:05;15.80;99.90
17948;DHT22;9099;47.958;11.366;2022-09-09T05:28:34;15.80;99.90
17948;DHT22;9099;47.958;11.366;2022-09-09T05:31:04;15.80;99.90
17948;DHT22;9099;47.958;11.366;2022-09-09T05:33:31;15.80;99.90
17948;DHT22;9099;47.958;11.366;2022-09-09T05:35:59;15.80;99.90
17948;DHT22;9099;47.958;11.366;2022-09-09T05:38:29;15.80;99.90
17948;DHT22;9099;47.958;11.366;2022-09-09T05:40:56;15.80;99.90
17948;DHT22;9099;47.958;11.366;2022-09-09T05:43:23;15.90;99.90
17948;DHT22;9099;47.958;11.366;2022-09-09T05:45:59;15.90;99.90
17948;DHT22;9099;47.958;11.366;2022-09-09T05:48:28;15.90;99.90
17948;DHT22;9099;47.958;11.366;2022-09-09T05:50:56;15.90;99.90
17948;DHT22;9099;47.958;11.366;2022-09-09T05:53:23;15.90;99.90
17948;DHT22;9099;47.958;11.366;2022-09-09T05:55:58;15.90;99.90
17948;DHT22;9099;47.958;11.366;2022-09-09T05:58:25;15.90;99.90
17948;DHT22;9099;47.958;11.366;2022-09-09T06:00:52;15.90;99.90
17948;DHT22;9099;47.958;11.366;2022-09-09T06:03:20;15.90;99.90
17948;DHT22;9099;47.958;11.366;2022-09-09T06:05:57;15.90;99.90
17948;DHT22;9099;47.958;11.366;2022-09-09T06:08:24;15.90;99.90
17948;DHT22;9099;47.958;11.366;2022-09-09T06:10:52;15.90;99.90
17948;DHT22;9099;47.958;11.366;2022-09-09T06:13:19;15.90;99.90
17948;DHT22;9099;47.958;11.366;2022-09-09T06:15:49;16.00;99.90
17948;DHT22;9099;47.958;11.366;2022-09-09T06:18:17;16.10;99.90
17948;DHT22;9099;47.958;11.366;2022-09-09T06:20:53;16.10;99.90
17948;DHT22;9099;47.958;11.366;2022-09-09T06:23:20;16.20;99.90
17948;DHT22;9099;47.958;11.366;2022-09-09T06:25:48;16.30;99.90
17948;DHT22;9099;47.958;11.366;2022-09-09T06:28:18;16.30;99.90
17948;DHT22;9099;47.958;11.366;2022-09-09T06:30:44;16.30;99.90
17948;DHT22;9099;47.958;11.366;2022-09-09T06:33:12;16.30;99.90
17948;DHT22;9099;47.958;11.366;2022-09-09T06:35:39;16.40;99.90
17948;DHT22;9099;47.958;11.366;2022-09-09T06:38:06;16.30;99.90
17948;DHT22;9099;47.958;11.366;2022-09-09T06:40:34;16.30;99.90
17948;DHT22;9099;47.958;11.366;2022-09-09T06:43:00;16.30;99.90
17948;DHT22;9099;47.958;11.366;2022-09-09T06:45:29;16.40;99.90
17948;DHT22;9099;47.958;11.366;2022-09-09T06:47:56;16.40;99.90
17948;DHT22;9099;47.958;11.366;2022-09-09T06:50:23;16.40;99.90
17948;DHT22;9099;47.958;11.366;2022-09-09T06:52:50;16.40;99.90
17948;DHT22;9099;47.958;11.366;2022-09-09T06:55:17;16.40;99.90
17948;DHT22;9099;47.958;11.366;2022-09-09T06:57:44;16.40;99.90
17948;DHT22;9099;47.958;11.366;2022-09-09T07:00:12;16.50;99.90
17948;DHT22;9099;47.958;11.366;2022-09-09T07:02:40;16.60;99.90
17948;DHT22;9099;47.958;11.366;2022-09-09T07:05:08;16.60;99.90
17948;DHT22;9099;47.958;11.366;2022-09-09T07:07:35;16.50;99.90
17948;DHT22;9099;47.958;11.366;2022-09-09T07:10:02;16.60;99.90
17948;DHT22;9099;47.958;11.366;2022-09-09T07:12:30;16.60;99.90
17948;DHT22;9099;47.958;11.366;2022-09-09T07:14:57;16.60;99.90
17948;DHT22;9099;47.958;11.366;2022-09-09T07:17:23;16.70;99.90
17948;DHT22;9099;47.958;11.366;2022-09-09T07:19:52;16.80;99.90
17948;DHT22;9099;47.958;11.366;2022-09-09T07:22:18;17.00;99.90
17948;DHT22;9099;47.958;11.366;2022-09-09T07:24:45;17.10;99.90
17948;DHT22;9099;47.958;11.366;2022-09-09T07:27:12;17.20;99.90
17948;DHT22;9099;47.958;11.366;2022-09-09T07:29:39;17.20;99.90
17948;DHT22;9099;47.958;11.366;2022-09-09T07:32:06;17.30;99.90
17948;DHT22;9099;47.958;11.366;2022-09-09T07:34:33;17.40;99.90
17948;DHT22;9099;47.958;11.366;2022-09-09T07:37:01;17.50;99.90
17948;DHT22;9099;47.958;11.366;2022-09-09T07:39:28;17.60;99.90
17948;DHT22;9099;47.958;11.366;2022-09-09T07:41:56;17.90;99.90
17948;DHT22;9099;47.958;11.366;2022-09-09T07:44:25;18.00;99.90
17948;DHT22;9099;47.958;11.366;2022-09-09T07:46:52;18.10;99.90
17948;DHT22;9099;47.958;11.366;2022-09-09T07:49:19;18.10;99.90
17948;DHT22;9099;47.958;11.366;2022-09-09T07:51:47;18.20;99.90
17948;DHT22;9099;47.958;11.366;2022-09-09T07:54:17;18.20;99.90
17948;DHT22;9099;47.958;11.366;2022-09-09T07:56:46;18.10;99.90
17948;DHT22;9099;47.958;11.366;2022-09-09T07:59:14;18.10;99.90
17948;DHT22;9099;47.958;11.366;2022-09-09T08:01:43;18.10;99.90
17948;DHT22;9099;47.958;11.366;2022-09-09T08:04:12;18.10;99.90
17948;DHT22;9099;47.958;11.366;2022-09-09T08:06:44;18.10;99.90
17948;DHT22;9099;47.958;11.366;2022-09-09T08:09:12;18.10;99.90
17948;DHT22;9099;47.958;11.366;2022-09-09T08:11:41;18.10;99.90
17948;DHT22;9099;47.958;11.366;2022-09-09T08:14:09;18.00;99.90
17948;DHT22;9099;47.958;11.366;2022-09-09T08:16:38;17.90;99.90
17948;DHT22;9099;47.958;11.366;2022-09-09T08:19:05;18.00;99.90
17948;DHT22;9099;47.958;11.366;2022-09-09T08:21:34;17.90;99.90
17948;DHT22;9099;47.958;11.366;2022-09-09T08:24:03;18.00;99.90
17948;DHT22;9099;47.958;11.366;2022-09-09T08:26:32;18.10;99.90
17948;DHT22;9099;47.958;11.366;2022-09-09T08:29:02;18.10;99.90
17948;DHT22;9099;47.958;11.366;2022-09-09T08:31:31;18.10;99.90
17948;DHT22;9099;47.958;11.366;2022-09-09T08:33:59;18.10;99.90
17948;DHT22;9099;47.958;11.366;2022-09-09T08:36:28;18.20;99.90
17948;DHT22;9099;47.958;11.366;2022-09-09T08:38:56;18.20;99.90
17948;DHT22;9099;47.958;11.366;2022-09-09T08:41:43;18.10;99.90
17948;DHT22;9099;47.958;11.366;2022-09-09T08:44:17;18.00;99.90
17948;DHT22;9099;47.958;11.366;2022-09-09T08:46:50;18.00;99.90
17948;DHT22;9099;47.958;11.366;2022-09-09T08:49:43;18.00;99.90
17948;DHT22;9099;47.958;11.366;2022-09-09T08:52:18;18.00;99.90
17948;DHT22;9099;47.958;11.366;2022-09-09T08:54:46;18.10;99.90
17948;DHT22;9099;47.958;11.366;2022-09-09T08:57:19;18.10;99.90
17948;DHT22;9099;47.958;11.366;2022-09-09T08:59:54;18.10;99.90
17948;DHT22;9099;47.958;11.366;2022-09-09T09:02:26;18.10;99.90
17948;DHT22;9099;47.958;11.366;2022-09-09T09:05:06;18.20;99.90
17948;DHT22;9099;47.958;11.366;2022-09-09T09:07:45;18.20;99.90
17948;DHT22;9099;47.958;11.366;2022-09-09T09:10:19;18.20;99.90
17948;DHT22;9099;47.958;11.366;2022-09-09T09:12:47;18.30;99.90
17948;DHT22;9099;47.958;11.366;2022-09-09T09:15:19;18.30;99.90
17948;DHT22;9099;47.958;11.366;2022-09-09T09:17:47;18.40;99.90
17948;DHT22;9099;47.958;11.366;2022-09-09T09:20:17;18.50;99.90
17948;DHT22;9099;47.958;11.366;2022-09-09T09:22:48;18.50;99.90
17948;DHT22;9099;47.958;11.366;2022-09-09T09:25:18;18.60;99.90
17948;DHT22;9099;47.958;11.366;2022-09-09T09:27:50;18.60;99.90
17948;DHT22;9099;47.958;11.366;2022-09-09T09:30:23;18.40;99.90
17948;DHT22;9099;47.958;11.366;2022-09-09T09:32:54;18.40;99.90
17948;DHT22;9099;47.958;11.366;2022-09-09T09:35:21;18.40;99.90
17948;DHT22;9099;47.958;11.366;2022-09-09T09:37:49;18.30;99.90
17948;DHT22;9099;47.958;11.366;2022-09-09T09:40:17;18.30;99.90
17948;DHT22;9099;47.958;11.366;2022-09-09T09:42:51;18.30;99.90
17948;DHT22;9099;47.958;11.366;2022-09-09T09:45:28;18.20;99.90
17948;DHT22;9099;47.958;11.366;2022-09-09T09:48:02;18.10;99.90
17948;DHT22;9099;47.958;11.366;2022-09-09T09:50:30;18.20;99.90
17948;DHT22;9099;47.958;11.366;2022-09-09T09:53:00;18.20;99.90
17948;DHT22;9099;47.958;11.366;2022-09-09T09:55:28;18.30;99.90
17948;DHT22;9099;47.958;11.366;2022-09-09T09:58:01;18.30;99.90
17948;DHT22;9099;47.958;11.366;2022-09-09T10:00:30;18.30;99.90
17948;DHT22;9099;47.958;11.366;2022-09-09T10:02:59;18.30;99.90
17948;DHT22;9099;47.958;11.366;2022-09-09T10:05:28;18.20;99.90
17948;DHT22;9099;47.958;11.366;2022-09-09T10:08:08;18.10;99.90
17948;DHT22;9099;47.958;11.366;2022-09-09T10:10:46;17.90;99.90
17948;DHT22;9099;47.958;11.366;2022-09-09T10:13:20;18.00;99.90
17948;DHT22;9099;47.958;11.366;2022-09-09T10:16:01;18.00;99.90
17948;DHT22;9099;47.958;11.366;2022-09-09T10:18:45;18.00;99.90
17948;DHT22;9099;47.958;11.366;2022-09-09T10:21:24;18.10;99.90
17948;DHT22;9099;47.958;11.366;2022-09-09T10:24:14;18.20;99.90
17948;DHT22;9099;47.958;11.366;2022-09-09T10:26:51;18.30;99.90
17948;DHT22;9099;47.958;11.366;2022-09-09T10:29:30;18.30;99.90
17948;DHT22;9099;47.958;11.366;2022-09-09T10:32:10;18.10;99.90
17948;DHT22;9099;47.958;11.366;2022-09-09T10:34:57;18.00;99.90
17948;DHT22;9099;47.958;11.366;2022-09-09T10:37:37;17.90;99.90
17948;DHT22;9099;47.958;11.366;2022-09-09T10:40:24;17.70;99.90
17948;DHT22;9099;47.958;11.366;2022-09-09T10:43:00;17.70;99.90
17948;DHT22;9099;47.958;11.366;2022-09-09T10:45:38;17.70;99.90
17948;DHT22;9099;47.958;11.366;2022-09-09T10:48:26;17.80;99.90
17948;DHT22;9099;47.958;11.366;2022-09-09T10:51:06;18.10;99.90
17948;DHT22;9099;47.958;11.366;2022-09-09T10:53:45;18.30;99.90
17948;DHT22;9099;47.958;11.366;2022-09-09T10:56:16;18.50;99.90
17948;DHT22;9099;47.958;11.366;2022-09-09T10:58:48;18.60;99.90
17948;DHT22;9099;47.958;11.366;2022-09-09T11:01:19;18.70;99.90
17948;DHT22;9099;47.958;11.366;2022-09-09T11:03:53;18.90;99.90
17948;DHT22;9099;47.958;11.366;2022-09-09T11:06:24;19.00;99.90
17948;DHT22;9099;47.958;11.366;2022-09-09T11:08:53;19.00;99.90
17948;DHT22;9099;47.958;11.366;2022-09-09T11:11:26;19.00;99.90
17948;DHT22;9099;47.958;11.366;2022-09-09T11:13:58;19.10;99.90
17948;DHT22;9099;47.958;11.366;2022-09-09T11:16:29;19.20;99.90
17948;DHT22;9099;47.958;11.366;2022-09-09T11:19:03;19.30;99.90
17948;DHT22;9099;47.958;11.366;2022-09-09T11:21:34;19.60;99.90
17948;DHT22;9099;47.958;11.366;2022-09-09T11:24:04;19.70;99.90
17948;DHT22;9099;47.958;11.366;2022-09-09T11:26:38;19.90;99.90
17948;DHT22;9099;47.958;11.366;2022-09-09T11:29:26;20.30;99.90
17948;DHT22;9099;47.958;11.366;2022-09-09T11:32:08;20.60;99.90
17948;DHT22;9099;47.958;11.366;2022-09-09T11:34:51;20.90;99.90
17948;DHT22;9099;47.958;11.366;2022-09-09T11:37:33;20.90;99.90
17948;DHT22;9099;47.958;11.366;2022-09-09T11:40:16;21.10;99.90
17948;DHT22;9099;47.958;11.366;2022-09-09T11:42:43;21.20;99.90
17948;DHT22;9099;47.958;11.366;2022-09-09T11:45:21;21.20;99.90
17948;DHT22;9099;47.958;11.366;2022-09-09T11:47:53;21.00;99.90
17948;DHT22;9099;47.958;11.366;2022-09-09T11:50:31;21.00;99.90
17948;DHT22;9099;47.958;11.366;2022-09-09T11:53:18;21.00;99.90
17948;DHT22;9099;47.958;11.366;2022-09-09T11:55:48;21.00;99.90
17948;DHT22;9099;47.958;11.366;2022-09-09T11:58:26;21.00;99.90
17948;DHT22;9099;47.958;11.366;2022-09-09T12:00:54;20.90;99.90
17948;DHT22;9099;47.958;11.366;2022-09-09T12:03:40;20.80;99.90
17948;DHT22;9099;47.958;11.366;2022-09-09T12:06:13;20.70;99.90
17948;DHT22;9099;47.958;11.366;2022-09-09T12:08:43;20.50;99.90
17948;DHT22;9099;47.958;11.366;2022-09-09T12:11:10;20.40;99.90
17948;DHT22;9099;47.958;11.366;2022-09-09T12:13:37;20.30;99.90
17948;DHT22;9099;47.958;11.366;2022-09-09T12:16:04;20.00;99.90
17948;DHT22;9099;47.958;11.366;2022-09-09T12:18:34;19.80;99.90
17948;DHT22;9099;47.958;11.366;2022-09-09T12:21:06;19.50;99.90
17948;DHT22;9099;47.958;11.366;2022-09-09T12:23:41;19.40;99.90
17948;DHT22;9099;47.958;11.366;2022-09-09T12:26:25;19.40;99.90
17948;DHT22;9099;47.958;11.366;2022-09-09T12:29:11;19.30;99.90
17948;DHT22;9099;47.958;11.366;2022-09-09T12:31:46;19.40;99.90
17948;DHT22;9099;47.958;11.366;2022-09-09T12:34:16;19.40;99.90
17948;DHT22;9099;47.958;11.366;2022-09-09T12:36:47;19.50;99.90
17948;DHT22;9099;47.958;11.366;2022-09-09T12:39:31;19.50;99.90
17948;DHT22;9099;47.958;11.366;2022-09-09T12:42:00;19.50;99.90
17948;DHT22;9099;47.958;11.366;2022-09-09T12:44:29;19.60;99.90
17948;DHT22;9099;47.958;11.366;2022-09-09T12:47:01;19.60;99.90
17948;DHT22;9099;47.958;11.366;2022-09-09T12:49:31;19.60;99.90
17948;DHT22;9099;47.958;11.366;2022-09-09T12:52:03;19.60;99.90
17948;DHT22;9099;47.958;11.366;2022-09-09T12:54:33;19.70;99.90
17948;DHT22;9099;47.958;11.366;2022-09-09T12:57:01;19.80;99.90
17948;DHT22;9099;47.958;11.366;2022-09-09T12:59:36;19.80;99.90
17948;DHT22;9099;47.958;11.366;2022-09-09T13:02:16;19.80;99.90
17948;DHT22;9099;47.958;11.366;2022-09-09T13:04:44;19.80;99.90
17948;DHT22;9099;47.958;11.366;2022-09-09T13:07:12;19.80;99.90
17948;DHT22;9099;47.958;11.366;2022-09-09T13:09:42;19.90;99.90
17948;DHT22;9099;47.958;11.366;2022-09-09T13:12:14;19.80;99.90
17948;DHT22;9099;47.958;11.366;2022-09-09T13:14:44;19.90;99.90
17948;DHT22;9099;47.958;11.366;2022-09-09T13:17:18;20.10;99.90
17948;DHT22;9099;47.958;11.366;2022-09-09T13:19:46;20.10;99.90
17948;DHT22;9099;47.958;11.366;2022-09-09T13:22:14;20.00;99.90
17948;DHT22;9099;47.958;11.366;2022-09-09T13:24:43;19.90;99.90
17948;DHT22;9099;47.958;11.366;2022-09-09T13:27:26;20.00;99.90
17948;DHT22;9099;47.958;11.366;2022-09-09T13:29:55;20.00;99.90
17948;DHT22;9099;47.958;11.366;2022-09-09T13:32:23;19.90;99.90
17948;DHT22;9099;47.958;11.366;2022-09-09T13:34:53;19.90;99.90
17948;DHT22;9099;47.958;11.366;2022-09-09T13:37:23;19.70;99.90
17948;DHT22;9099;47.958;11.366;2022-09-09T13:39:53;19.60;99.90
17948;DHT22;9099;47.958;11.366;2022-09-09T13:42:25;19.50;99.90
17948;DHT22;9099;47.958;11.366;2022-09-09T13:44:53;19.50;99.90
17948;DHT22;9099;47.958;11.366;2022-09-09T13:47:26;19.40;99.90
17948;DHT22;9099;47.958;11.366;2022-09-09T13:49:54;19.40;99.90
17948;DHT22;9099;47.958;11.366;2022-09-09T13:52:21;19.30;99.90
17948;DHT22;9099;47.958;11.366;2022-09-09T13:54:49;19.30;99.90
17948;DHT22;9099;47.958;11.366;2022-09-09T13:57:20;19.20;99.90
17948;DHT22;9099;47.958;11.366;2022-09-09T13:59:47;19.30;99.90
17948;DHT22;9099;47.958;11.366;2022-09-09T14:02:14;19.20;99.90
17948;DHT22;9099;47.958;11.366;2022-09-09T14:04:42;19.10;99.90
17948;DHT22;9099;47.958;11.366;2022-09-09T14:07:11;19.00;99.90
17948;DHT22;9099;47.958;11.366;2022-09-09T14:09:39;19.00;99.90
17948;DHT22;9099;47.958;11.366;2022-09-09T14:12:09;19.00;99.90
17948;DHT22;9099;47.958;11.366;2022-09-09T14:14:37;19.00;99.90
17948;DHT22;9099;47.958;11.366;2022-09-09T14:17:04;18.90;99.90
17948;DHT22;9099;47.958;11.366;2022-09-09T14:19:32;18.80;99.90
17948;DHT22;9099;47.958;11.366;2022-09-09T14:21:59;18.90;99.90
17948;DHT22;9099;47.958;11.366;2022-09-09T14:24:27;18.90;99.90
17948;DHT22;9099;47.958;11.366;2022-09-09T14:26:54;18.90;99.90
17948;DHT22;9099;47.958;11.366;2022-09-09T14:29:21;18.80;99.90
17948;DHT22;9099;47.958;11.366;2022-09-09T14:31:49;18.80;99.90
17948;DHT22;9099;47.958;11.366;2022-09-09T14:34:16;18.80;99.90
17948;DHT22;9099;47.958;11.366;2022-09-09T14:36:43;18.80;99.90
17948;DHT22;9099;47.958;11.366;2022-09-09T14:39:11;18.90;99.90
17948;DHT22;9099;47.958;11.366;2022-09-09T14:41:38;18.80;99.90
17948;DHT22;9099;47.958;11.366;2022-09-09T14:44:04;18.90;99.90
17948;DHT22;9099;47.958;11.366;2022-09-09T14:46:31;18.90;99.90
17948;DHT22;9099;47.958;11.366;2022-09-09T14:49:00;18.90;99.90
17948;DHT22;9099;47.958;11.366;2022-09-09T14:51:27;19.00;99.90
17948;DHT22;9099;47.958;11.366;2022-09-09T14:53:55;19.00;99.90
17948;DHT22;9099;47.958;11.366;2022-09-09T14:56:24;19.00;99.90
17948;DHT22;9099;47.958;11.366;2022-09-09T14:58:53;19.00;99.90
17948;DHT22;9099;47.958;11.366;2022-09-09T15:01:21;19.00;99.90
17948;DHT22;9099;47.958;11.366;2022-09-09T15:03:52;19.00;99.90
17948;DHT22;9099;47.958;11.366;2022-09-09T15:06:22;19.10;99.90
17948;DHT22;9099;47.958;11.366;2022-09-09T15:08:51;19.00;99.90
17948;DHT22;9099;47.958;11.366;2022-09-09T15:11:19;19.00;99.90
17948;DHT22;9099;47.958;11.366;2022-09-09T15:13:46;19.00;99.90
17948;DHT22;9099;47.958;11.366;2022-09-09T15:16:15;19.00;99.90
17948;DHT22;9099;47.958;11.366;2022-09-09T15:18:42;18.90;99.90
17948;DHT22;9099;47.958;11.366;2022-09-09T15:21:10;18.90;99.90
17948;DHT22;9099;47.958;11.366;2022-09-09T15:23:39;18.90;99.90
17948;DHT22;9099;47.958;11.366;2022-09-09T15:26:06;18.80;99.90
17948;DHT22;9099;47.958;11.366;2022-09-09T15:28:35;18.80;99.90
17948;DHT22;9099;47.958;11.366;2022-09-09T15:31:06;18.80;99.90
17948;DHT22;9099;47.958;11.366;2022-09-09T15:33:33;18.80;99.90
17948;DHT22;9099;47.958;11.366;2022-09-09T15:36:12;18.70;99.90
17948;DHT22;9099;47.958;11.366;2022-09-09T15:38:41;18.70;99.90
17948;DHT22;9099;47.958;11.366;2022-09-09T15:41:09;18.70;99.90
17948;DHT22;9099;47.958;11.366;2022-09-09T15:43:36;18.70;99.90
17948;DHT22;9099;47.958;11.366;2022-09-09T15:46:21;18.80;99.90
17948;DHT22;9099;47.958;11.366;2022-09-09T15:48:50;18.80;99.90
17948;DHT22;9099;47.958;11.366;2022-09-09T15:51:17;18.70;99.90
17948;DHT22;9099;47.958;11.366;2022-09-09T15:53:45;18.70;99.90